sensor_id;sensor_type;location;lat;lon;timestamp;P1;durP1;ratioP1;P2;durP2;ratioP2
11671;SDS011;5892;43.412;24.612;2022-11-20T00:00:17;18.10;;;15.13;;
11671;SDS011;5892;43.412;24.612;2022-11-20T00:02:44;16.20;;;14.43;;
11671;SDS011;5892;43.412;24.612;2022-11-20T00:05:11;16.13;;;14.37;;
11671;SDS011;5892;43.412;24.612;2022-11-20T00:07:38;18.57;;;14.57;;
11671;SDS011;5892;43.412;24.612;2022-11-20T00:10:05;18.03;;;14.70;;
11671;SDS011;5892;43.412;24.612;2022-11-20T00:12:32;18.37;;;14.87;;
11671;SDS011;5892;43.412;24.612;2022-11-20T00:14:59;16.57;;;14.87;;
11671;SDS011;5892;43.412;24.612;2022-11-20T00:17:28;18.03;;;15.00;;
11671;SDS011;5892;43.412;24.612;2022-11-20T00:19:54;21.00;;;15.87;;
11671;SDS011;5892;43.412;24.612;2022-11-20T00:22:21;20.53;;;16.13;;
11671;SDS011;5892;43.412;24.612;2022-11-20T00:24:48;19.50;;;16.20;;
11671;SDS011;5892;43.412;24.612;2022-11-20T00:27:15;17.90;;;15.93;;
11671;SDS011;5892;43.412;24.612;2022-11-20T00:29:42;19.80;;;16.10;;
11671;SDS011;5892;43.412;24.612;2022-11-20T00:32:09;20.13;;;16.30;;
11671;SDS011;5892;43.412;24.612;2022-11-20T00:34:37;20.17;;;16.27;;
11671;SDS011;5892;43.412;24.612;2022-11-20T00:37:04;20.07;;;15.83;;
11671;SDS011;5892;43.412;24.612;2022-11-20T00:39:31;20.77;;;16.70;;
11671;SDS011;5892;43.412;24.612;2022-11-20T00:41:59;21.27;;;16.70;;
11671;SDS011;5892;43.412;24.612;2022-11-20T00:44:25;20.03;;;16.27;;
11671;SDS011;5892;43.412;24.612;2022-11-20T00:46:53;38.23;;;22.83;;
11671;SDS011;5892;43.412;24.612;2022-11-20T00:49:20;33.33;;;21.07;;
11671;SDS011;5892;43.412;24.612;2022-11-20T00:51:48;38.40;;;22.93;;
11671;SDS011;5892;43.412;24.612;2022-11-20T00:54:15;30.60;;;20.23;;
11671;SDS011;5892;43.412;24.612;2022-11-20T00:56:42;18.33;;;15.60;;
11671;SDS011;5892;43.412;24.612;2022-11-20T00:59:09;18.80;;;15.53;;
11671;SDS011;5892;43.412;24.612;2022-11-20T01:01:36;17.30;;;14.70;;
11671;SDS011;5892;43.412;24.612;2022-11-20T01:04:03;16.80;;;15.03;;
11671;SDS011;5892;43.412;24.612;2022-11-20T01:06:31;18.67;;;14.97;;
11671;SDS011;5892;43.412;24.612;2022-11-20T01:09:03;17.43;;;14.97;;
11671;SDS011;5892;43.412;24.612;2022-11-20T01:11:32;18.20;;;15.63;;
11671;SDS011;5892;43.412;24.612;2022-11-20T01:14:01;18.03;;;14.90;;
11671;SDS011;5892;43.412;24.612;2022-11-20T01:16:30;19.07;;;15.30;;
11671;SDS011;5892;43.412;24.612;2022-11-20T01:18:59;21.30;;;16.03;;
11671;SDS011;5892;43.412;24.612;2022-11-20T01:21:28;18.77;;;15.60;;
11671;SDS011;5892;43.412;24.612;2022-11-20T01:23:57;18.67;;;16.23;;
11671;SDS011;5892;43.412;24.612;2022-11-20T01:26:27;18.83;;;16.27;;
11671;SDS011;5892;43.412;24.612;2022-11-20T01:28:56;17.73;;;15.10;;
11671;SDS011;5892;43.412;24.612;2022-11-20T01:31:24;19.13;;;15.43;;
11671;SDS011;5892;43.412;24.612;2022-11-20T01:33:54;17.20;;;15.33;;
11671;SDS011;5892;43.412;24.612;2022-11-20T01:36:24;39.13;;;22.33;;
11671;SDS011;5892;43.412;24.612;2022-11-20T01:38:54;30.57;;;18.67;;
11671;SDS011;5892;43.412;24.612;2022-11-20T01:41:23;20.63;;;15.57;;
11671;SDS011;5892;43.412;24.612;2022-11-20T01:44:10;18.00;;;14.87;;
11671;SDS011;5892;43.412;24.612;2022-11-20T01:46:40;17.07;;;14.83;;
11671;SDS011;5892;43.412;24.612;2022-11-20T01:49:23;21.00;;;15.47;;
11671;SDS011;5892;43.412;24.612;2022-11-20T01:51:55;17.47;;;15.57;;
11671;SDS011;5892;43.412;24.612;2022-11-20T01:54:27;17.13;;;14.37;;
11671;SDS011;5892;43.412;24.612;2022-11-20T01:56:58;16.47;;;14.73;;
11671;SDS011;5892;43.412;24.612;2022-11-20T01:59:28;18.40;;;15.93;;
11671;SDS011;5892;43.412;24.612;2022-11-20T02:01:56;17.20;;;14.93;;
11671;SDS011;5892;43.412;24.612;2022-11-20T02:04:23;20.50;;;14.63;;
11671;SDS011;5892;43.412;24.612;2022-11-20T02:06:51;16.47;;;14.70;;
11671;SDS011;5892;43.412;24.612;2022-11-20T02:09:25;37.87;;;22.70;;
11671;SDS011;5892;43.412;24.612;2022-11-20T02:11:52;24.43;;;17.70;;
11671;SDS011;5892;43.412;24.612;2022-11-20T02:14:20;22.77;;;17.20;;
11671;SDS011;5892;43.412;24.612;2022-11-20T02:16:49;20.03;;;15.53;;
11671;SDS011;5892;43.412;24.612;2022-11-20T02:19:19;17.67;;;15.37;;
11671;SDS011;5892;43.412;24.612;2022-11-20T02:21:53;17.67;;;15.10;;
11671;SDS011;5892;43.412;24.612;2022-11-20T02:24:27;20.87;;;15.23;;
11671;SDS011;5892;43.412;24.612;2022-11-20T02:26:56;19.00;;;15.30;;
11671;SDS011;5892;43.412;24.612;2022-11-20T02:29:26;18.17;;;15.50;;
11671;SDS011;5892;43.412;24.612;2022-11-20T02:31:58;19.50;;;15.87;;
11671;SDS011;5892;43.412;24.612;2022-11-20T02:34:27;18.63;;;15.13;;
11671;SDS011;5892;43.412;24.612;2022-11-20T02:36:54;20.73;;;15.50;;
11671;SDS011;5892;43.412;24.612;2022-11-20T02:39:23;19.73;;;16.17;;
11671;SDS011;5892;43.412;24.612;2022-11-20T02:41:53;18.83;;;15.87;;
11671;SDS011;5892;43.412;24.612;2022-11-20T02:44:21;20.47;;;17.20;;
11671;SDS011;5892;43.412;24.612;2022-11-20T02:46:48;20.70;;;17.60;;
11671;SDS011;5892;43.412;24.612;2022-11-20T02:49:15;18.70;;;16.70;;
11671;SDS011;5892;43.412;24.612;2022-11-20T02:51:42;19.40;;;15.83;;
11671;SDS011;5892;43.412;24.612;2022-11-20T02:54:10;20.17;;;16.93;;
11671;SDS011;5892;43.412;24.612;2022-11-20T02:56:39;21.63;;;17.63;;
11671;SDS011;5892;43.412;24.612;2022-11-20T02:59:07;23.97;;;18.57;;
11671;SDS011;5892;43.412;24.612;2022-11-20T03:01:34;24.93;;;19.90;;
11671;SDS011;5892;43.412;24.612;2022-11-20T03:04:02;26.97;;;19.37;;
11671;SDS011;5892;43.412;24.612;2022-11-20T03:06:29;32.73;;;21.03;;
11671;SDS011;5892;43.412;24.612;2022-11-20T03:08:56;31.57;;;21.80;;
11671;SDS011;5892;43.412;24.612;2022-11-20T03:11:23;37.20;;;23.70;;
11671;SDS011;5892;43.412;24.612;2022-11-20T03:13:50;34.57;;;23.33;;
11671;SDS011;5892;43.412;24.612;2022-11-20T03:16:19;33.17;;;22.93;;
11671;SDS011;5892;43.412;24.612;2022-11-20T03:18:48;28.30;;;20.73;;
11671;SDS011;5892;43.412;24.612;2022-11-20T03:21:15;26.67;;;20.03;;
11671;SDS011;5892;43.412;24.612;2022-11-20T03:23:42;24.63;;;18.67;;
11671;SDS011;5892;43.412;24.612;2022-11-20T03:26:10;24.33;;;19.37;;
11671;SDS011;5892;43.412;24.612;2022-11-20T03:28:40;26.47;;;19.87;;
11671;SDS011;5892;43.412;24.612;2022-11-20T03:31:08;25.73;;;19.80;;
11671;SDS011;5892;43.412;24.612;2022-11-20T03:33:38;25.37;;;19.67;;
11671;SDS011;5892;43.412;24.612;2022-11-20T03:36:07;28.13;;;20.50;;
11671;SDS011;5892;43.412;24.612;2022-11-20T03:38:36;30.23;;;21.47;;
11671;SDS011;5892;43.412;24.612;2022-11-20T03:41:04;32.23;;;21.73;;
11671;SDS011;5892;43.412;24.612;2022-11-20T03:43:32;33.20;;;22.37;;
11671;SDS011;5892;43.412;24.612;2022-11-20T03:45:59;36.80;;;23.20;;
11671;SDS011;5892;43.412;24.612;2022-11-20T03:48:26;32.80;;;23.07;;
11671;SDS011;5892;43.412;24.612;2022-11-20T03:51:07;38.37;;;24.80;;
11671;SDS011;5892;43.412;24.612;2022-11-20T03:53:35;36.20;;;24.10;;
11671;SDS011;5892;43.412;24.612;2022-11-20T03:56:02;36.70;;;24.23;;
11671;SDS011;5892;43.412;24.612;2022-11-20T03:58:29;40.20;;;24.60;;
11671;SDS011;5892;43.412;24.612;2022-11-20T04:00:56;36.43;;;25.20;;
11671;SDS011;5892;43.412;24.612;2022-11-20T04:03:23;37.33;;;25.00;;
11671;SDS011;5892;43.412;24.612;2022-11-20T04:05:50;39.50;;;25.53;;
11671;SDS011;5892;43.412;24.612;2022-11-20T04:08:18;41.83;;;24.37;;
11671;SDS011;5892;43.412;24.612;2022-11-20T04:10:45;37.00;;;24.83;;
11671;SDS011;5892;43.412;24.612;2022-11-20T04:13:12;38.70;;;25.73;;
11671;SDS011;5892;43.412;24.612;2022-11-20T04:15:39;39.93;;;26.27;;
11671;SDS011;5892;43.412;24.612;2022-11-20T04:18:06;39.63;;;26.97;;
11671;SDS011;5892;43.412;24.612;2022-11-20T04:20:33;44.47;;;26.97;;
11671;SDS011;5892;43.412;24.612;2022-11-20T04:23:00;53.77;;;28.50;;
11671;SDS011;5892;43.412;24.612;2022-11-20T04:25:28;40.93;;;27.33;;
11671;SDS011;5892;43.412;24.612;2022-11-20T04:27:55;46.20;;;28.60;;
11671;SDS011;5892;43.412;24.612;2022-11-20T04:30:22;44.33;;;28.27;;
11671;SDS011;5892;43.412;24.612;2022-11-20T04:32:49;44.23;;;28.77;;
11671;SDS011;5892;43.412;24.612;2022-11-20T04:35:15;41.67;;;27.97;;
11671;SDS011;5892;43.412;24.612;2022-11-20T04:37:45;41.87;;;27.23;;
11671;SDS011;5892;43.412;24.612;2022-11-20T04:40:12;48.17;;;27.73;;
11671;SDS011;5892;43.412;24.612;2022-11-20T04:42:40;47.47;;;27.73;;
11671;SDS011;5892;43.412;24.612;2022-11-20T04:45:07;45.17;;;27.83;;
11671;SDS011;5892;43.412;24.612;2022-11-20T04:47:34;50.73;;;27.53;;
11671;SDS011;5892;43.412;24.612;2022-11-20T04:50:01;48.53;;;28.73;;
11671;SDS011;5892;43.412;24.612;2022-11-20T04:52:29;53.83;;;29.00;;
11671;SDS011;5892;43.412;24.612;2022-11-20T04:54:55;47.93;;;28.43;;
11671;SDS011;5892;43.412;24.612;2022-11-20T04:57:22;60.17;;;28.83;;
11671;SDS011;5892;43.412;24.612;2022-11-20T04:59:51;51.23;;;28.80;;
11671;SDS011;5892;43.412;24.612;2022-11-20T05:02:18;51.27;;;29.50;;
11671;SDS011;5892;43.412;24.612;2022-11-20T05:04:45;51.93;;;29.67;;
11671;SDS011;5892;43.412;24.612;2022-11-20T05:07:12;58.70;;;33.13;;
11671;SDS011;5892;43.412;24.612;2022-11-20T05:09:39;70.87;;;35.23;;
11671;SDS011;5892;43.412;24.612;2022-11-20T05:12:06;102.47;;;38.90;;
11671;SDS011;5892;43.412;24.612;2022-11-20T05:14:34;80.07;;;37.67;;
11671;SDS011;5892;43.412;24.612;2022-11-20T05:17:02;293.60;;;40.47;;
11671;SDS011;5892;43.412;24.612;2022-11-20T05:19:29;153.17;;;38.27;;
11671;SDS011;5892;43.412;24.612;2022-11-20T05:21:56;83.07;;;37.40;;
11671;SDS011;5892;43.412;24.612;2022-11-20T05:24:23;84.83;;;38.83;;
11671;SDS011;5892;43.412;24.612;2022-11-20T05:26:50;90.47;;;38.57;;
11671;SDS011;5892;43.412;24.612;2022-11-20T05:29:17;634.77;;;53.00;;
11671;SDS011;5892;43.412;24.612;2022-11-20T05:31:44;96.30;;;37.17;;
11671;SDS011;5892;43.412;24.612;2022-11-20T05:34:14;61.33;;;36.43;;
11671;SDS011;5892;43.412;24.612;2022-11-20T05:36:41;123.03;;;36.73;;
11671;SDS011;5892;43.412;24.612;2022-11-20T05:39:07;139.13;;;35.67;;
11671;SDS011;5892;43.412;24.612;2022-11-20T05:41:35;287.33;;;40.07;;
11671;SDS011;5892;43.412;24.612;2022-11-20T05:44:02;163.43;;;37.30;;
11671;SDS011;5892;43.412;24.612;2022-11-20T05:46:29;137.27;;;37.53;;
11671;SDS011;5892;43.412;24.612;2022-11-20T05:48:56;70.33;;;35.60;;
11671;SDS011;5892;43.412;24.612;2022-11-20T05:51:25;188.00;;;38.40;;
11671;SDS011;5892;43.412;24.612;2022-11-20T05:53:53;113.20;;;37.50;;
11671;SDS011;5892;43.412;24.612;2022-11-20T05:56:20;89.43;;;37.70;;
11671;SDS011;5892;43.412;24.612;2022-11-20T05:58:48;69.63;;;36.80;;
11671;SDS011;5892;43.412;24.612;2022-11-20T06:01:17;65.00;;;37.60;;
11671;SDS011;5892;43.412;24.612;2022-11-20T06:03:45;90.60;;;38.57;;
11671;SDS011;5892;43.412;24.612;2022-11-20T06:06:12;477.50;;;50.43;;
11671;SDS011;5892;43.412;24.612;2022-11-20T06:08:41;89.80;;;37.60;;
11671;SDS011;5892;43.412;24.612;2022-11-20T06:11:09;648.07;;;51.57;;
11671;SDS011;5892;43.412;24.612;2022-11-20T06:13:40;452.40;;;46.50;;
11671;SDS011;5892;43.412;24.612;2022-11-20T06:16:07;669.53;;;50.43;;
11671;SDS011;5892;43.412;24.612;2022-11-20T06:18:35;87.10;;;35.43;;
11671;SDS011;5892;43.412;24.612;2022-11-20T06:21:03;214.73;;;37.43;;
11671;SDS011;5892;43.412;24.612;2022-11-20T06:23:31;159.40;;;35.47;;
11671;SDS011;5892;43.412;24.612;2022-11-20T06:26:02;103.80;;;36.97;;
11671;SDS011;5892;43.412;24.612;2022-11-20T06:28:32;172.63;;;38.53;;
11671;SDS011;5892;43.412;24.612;2022-11-20T06:30:59;121.13;;;37.80;;
11671;SDS011;5892;43.412;24.612;2022-11-20T06:33:33;64.83;;;36.27;;
11671;SDS011;5892;43.412;24.612;2022-11-20T06:36:00;61.13;;;36.33;;
11671;SDS011;5892;43.412;24.612;2022-11-20T06:38:28;105.30;;;37.40;;
11671;SDS011;5892;43.412;24.612;2022-11-20T06:40:55;60.43;;;34.33;;
11671;SDS011;5892;43.412;24.612;2022-11-20T06:43:23;93.03;;;42.53;;
11671;SDS011;5892;43.412;24.612;2022-11-20T06:45:51;70.53;;;37.33;;
11671;SDS011;5892;43.412;24.612;2022-11-20T06:48:19;101.43;;;40.57;;
11671;SDS011;5892;43.412;24.612;2022-11-20T06:50:46;67.50;;;37.43;;
11671;SDS011;5892;43.412;24.612;2022-11-20T06:53:13;65.73;;;35.80;;
11671;SDS011;5892;43.412;24.612;2022-11-20T06:55:41;69.27;;;36.23;;
11671;SDS011;5892;43.412;24.612;2022-11-20T06:58:09;59.47;;;35.07;;
11671;SDS011;5892;43.412;24.612;2022-11-20T07:00:39;76.40;;;37.07;;
11671;SDS011;5892;43.412;24.612;2022-11-20T07:03:07;62.43;;;35.83;;
11671;SDS011;5892;43.412;24.612;2022-11-20T07:05:35;60.17;;;36.47;;
11671;SDS011;5892;43.412;24.612;2022-11-20T07:08:03;66.90;;;38.27;;
11671;SDS011;5892;43.412;24.612;2022-11-20T07:10:30;72.63;;;40.87;;
11671;SDS011;5892;43.412;24.612;2022-11-20T07:12:58;69.40;;;42.43;;
11671;SDS011;5892;43.412;24.612;2022-11-20T07:15:33;72.87;;;40.27;;
11671;SDS011;5892;43.412;24.612;2022-11-20T07:18:02;70.60;;;40.50;;
11671;SDS011;5892;43.412;24.612;2022-11-20T07:20:29;65.23;;;37.60;;
11671;SDS011;5892;43.412;24.612;2022-11-20T07:22:57;55.63;;;35.60;;
11671;SDS011;5892;43.412;24.612;2022-11-20T07:25:25;53.80;;;35.97;;
11671;SDS011;5892;43.412;24.612;2022-11-20T07:27:56;53.10;;;33.97;;
11671;SDS011;5892;43.412;24.612;2022-11-20T07:30:23;47.63;;;32.57;;
11671;SDS011;5892;43.412;24.612;2022-11-20T07:32:50;42.20;;;29.83;;
11671;SDS011;5892;43.412;24.612;2022-11-20T07:35:19;41.73;;;29.17;;
11671;SDS011;5892;43.412;24.612;2022-11-20T07:37:46;43.13;;;30.33;;
11671;SDS011;5892;43.412;24.612;2022-11-20T07:40:14;43.63;;;29.97;;
11671;SDS011;5892;43.412;24.612;2022-11-20T07:42:46;38.93;;;27.80;;
11671;SDS011;5892;43.412;24.612;2022-11-20T07:45:14;35.43;;;26.80;;
11671;SDS011;5892;43.412;24.612;2022-11-20T07:47:41;39.73;;;27.03;;
11671;SDS011;5892;43.412;24.612;2022-11-20T07:50:14;36.83;;;26.43;;
11671;SDS011;5892;43.412;24.612;2022-11-20T07:52:43;36.97;;;26.47;;
11671;SDS011;5892;43.412;24.612;2022-11-20T07:55:10;36.27;;;26.93;;
11671;SDS011;5892;43.412;24.612;2022-11-20T07:57:37;33.30;;;26.40;;
11671;SDS011;5892;43.412;24.612;2022-11-20T08:00:05;33.87;;;25.83;;
11671;SDS011;5892;43.412;24.612;2022-11-20T08:02:34;34.77;;;25.93;;
11671;SDS011;5892;43.412;24.612;2022-11-20T08:05:02;36.03;;;26.77;;
11671;SDS011;5892;43.412;24.612;2022-11-20T08:07:34;36.93;;;26.40;;
11671;SDS011;5892;43.412;24.612;2022-11-20T08:10:03;33.73;;;25.83;;
11671;SDS011;5892;43.412;24.612;2022-11-20T08:12:31;38.47;;;26.90;;
11671;SDS011;5892;43.412;24.612;2022-11-20T08:15:15;33.63;;;25.80;;
11671;SDS011;5892;43.412;24.612;2022-11-20T08:17:42;32.63;;;25.13;;
11671;SDS011;5892;43.412;24.612;2022-11-20T08:20:11;32.37;;;24.60;;
11671;SDS011;5892;43.412;24.612;2022-11-20T08:22:39;32.77;;;24.67;;
11671;SDS011;5892;43.412;24.612;2022-11-20T08:25:07;31.37;;;24.00;;
11671;SDS011;5892;43.412;24.612;2022-11-20T08:27:34;31.33;;;23.53;;
11671;SDS011;5892;43.412;24.612;2022-11-20T08:30:01;31.43;;;24.47;;
11671;SDS011;5892;43.412;24.612;2022-11-20T08:32:29;34.30;;;24.70;;
11671;SDS011;5892;43.412;24.612;2022-11-20T08:34:56;32.50;;;24.90;;
11671;SDS011;5892;43.412;24.612;2022-11-20T08:37:23;30.30;;;24.33;;
11671;SDS011;5892;43.412;24.612;2022-11-20T08:39:55;30.93;;;23.80;;
11671;SDS011;5892;43.412;24.612;2022-11-20T08:42:24;28.60;;;22.43;;
11671;SDS011;5892;43.412;24.612;2022-11-20T08:44:51;28.77;;;21.97;;
11671;SDS011;5892;43.412;24.612;2022-11-20T08:47:21;27.23;;;22.77;;
11671;SDS011;5892;43.412;24.612;2022-11-20T08:49:48;30.60;;;23.93;;
11671;SDS011;5892;43.412;24.612;2022-11-20T08:52:15;30.03;;;23.60;;
11671;SDS011;5892;43.412;24.612;2022-11-20T08:54:42;27.80;;;22.43;;
11671;SDS011;5892;43.412;24.612;2022-11-20T08:57:09;26.43;;;21.43;;
11671;SDS011;5892;43.412;24.612;2022-11-20T08:59:37;25.67;;;20.90;;
11671;SDS011;5892;43.412;24.612;2022-11-20T09:02:04;23.67;;;20.53;;
11671;SDS011;5892;43.412;24.612;2022-11-20T09:04:31;25.93;;;20.63;;
11671;SDS011;5892;43.412;24.612;2022-11-20T09:06:59;26.03;;;21.47;;
11671;SDS011;5892;43.412;24.612;2022-11-20T09:09:26;28.27;;;22.53;;
11671;SDS011;5892;43.412;24.612;2022-11-20T09:11:53;27.40;;;21.83;;
11671;SDS011;5892;43.412;24.612;2022-11-20T09:14:20;25.23;;;19.60;;
11671;SDS011;5892;43.412;24.612;2022-11-20T09:16:51;25.33;;;20.27;;
11671;SDS011;5892;43.412;24.612;2022-11-20T09:19:18;25.43;;;20.77;;
11671;SDS011;5892;43.412;24.612;2022-11-20T09:21:45;25.10;;;20.83;;
11671;SDS011;5892;43.412;24.612;2022-11-20T09:24:12;24.70;;;20.33;;
11671;SDS011;5892;43.412;24.612;2022-11-20T09:26:38;21.60;;;18.47;;
11671;SDS011;5892;43.412;24.612;2022-11-20T09:29:05;22.23;;;18.90;;
11671;SDS011;5892;43.412;24.612;2022-11-20T09:31:32;27.07;;;22.90;;
11671;SDS011;5892;43.412;24.612;2022-11-20T09:34:01;26.70;;;21.90;;
11671;SDS011;5892;43.412;24.612;2022-11-20T09:36:28;25.40;;;19.90;;
11671;SDS011;5892;43.412;24.612;2022-11-20T09:38:55;23.60;;;20.17;;
11671;SDS011;5892;43.412;24.612;2022-11-20T09:41:39;26.53;;;21.43;;
11671;SDS011;5892;43.412;24.612;2022-11-20T09:44:19;22.23;;;19.03;;
11671;SDS011;5892;43.412;24.612;2022-11-20T09:46:57;22.10;;;18.80;;
11671;SDS011;5892;43.412;24.612;2022-11-20T09:49:32;29.43;;;24.77;;
11671;SDS011;5892;43.412;24.612;2022-11-20T09:52:15;34.00;;;23.97;;
11671;SDS011;5892;43.412;24.612;2022-11-20T09:54:47;27.90;;;22.80;;
11671;SDS011;5892;43.412;24.612;2022-11-20T09:57:17;38.80;;;27.23;;
11671;SDS011;5892;43.412;24.612;2022-11-20T09:59:48;24.57;;;21.67;;
11671;SDS011;5892;43.412;24.612;2022-11-20T10:02:24;26.60;;;21.90;;
11671;SDS011;5892;43.412;24.612;2022-11-20T10:04:57;24.10;;;20.13;;
11671;SDS011;5892;43.412;24.612;2022-11-20T10:07:30;22.17;;;19.07;;
11671;SDS011;5892;43.412;24.612;2022-11-20T10:10:02;24.17;;;19.77;;
11671;SDS011;5892;43.412;24.612;2022-11-20T10:12:32;24.37;;;19.90;;
11671;SDS011;5892;43.412;24.612;2022-11-20T10:15:11;20.30;;;18.10;;
11671;SDS011;5892;43.412;24.612;2022-11-20T10:17:58;20.57;;;17.13;;
11671;SDS011;5892;43.412;24.612;2022-11-20T10:20:38;20.80;;;17.53;;
11671;SDS011;5892;43.412;24.612;2022-11-20T10:23:25;19.40;;;17.00;;
11671;SDS011;5892;43.412;24.612;2022-11-20T10:26:11;23.60;;;19.87;;
11671;SDS011;5892;43.412;24.612;2022-11-20T10:28:48;21.73;;;18.23;;
11671;SDS011;5892;43.412;24.612;2022-11-20T10:31:29;25.03;;;20.63;;
11671;SDS011;5892;43.412;24.612;2022-11-20T10:34:03;19.20;;;17.00;;
11671;SDS011;5892;43.412;24.612;2022-11-20T10:36:43;19.20;;;16.97;;
11671;SDS011;5892;43.412;24.612;2022-11-20T10:39:14;21.20;;;18.07;;
11671;SDS011;5892;43.412;24.612;2022-11-20T10:41:49;21.60;;;18.77;;
11671;SDS011;5892;43.412;24.612;2022-11-20T10:44:19;20.53;;;17.87;;
11671;SDS011;5892;43.412;24.612;2022-11-20T10:47:01;20.13;;;17.50;;
11671;SDS011;5892;43.412;24.612;2022-11-20T10:49:30;29.10;;;22.63;;
11671;SDS011;5892;43.412;24.612;2022-11-20T10:52:02;33.17;;;22.83;;
11671;SDS011;5892;43.412;24.612;2022-11-20T10:54:39;25.53;;;20.47;;
11671;SDS011;5892;43.412;24.612;2022-11-20T10:57:17;29.63;;;22.37;;
11671;SDS011;5892;43.412;24.612;2022-11-20T10:59:56;27.20;;;22.40;;
11671;SDS011;5892;43.412;24.612;2022-11-20T11:02:32;28.90;;;22.50;;
11671;SDS011;5892;43.412;24.612;2022-11-20T11:05:05;26.87;;;22.10;;
11671;SDS011;5892;43.412;24.612;2022-11-20T11:07:40;28.30;;;21.80;;
11671;SDS011;5892;43.412;24.612;2022-11-20T11:10:13;53.23;;;45.27;;
11671;SDS011;5892;43.412;24.612;2022-11-20T11:12:43;39.33;;;31.23;;
11671;SDS011;5892;43.412;24.612;2022-11-20T11:15:12;30.73;;;26.53;;
11671;SDS011;5892;43.412;24.612;2022-11-20T11:17:46;29.93;;;24.23;;
11671;SDS011;5892;43.412;24.612;2022-11-20T11:20:17;57.17;;;35.40;;
11671;SDS011;5892;43.412;24.612;2022-11-20T11:22:47;31.27;;;23.03;;
11671;SDS011;5892;43.412;24.612;2022-11-20T11:25:19;32.07;;;25.40;;
11671;SDS011;5892;43.412;24.612;2022-11-20T11:27:48;37.03;;;27.87;;
11671;SDS011;5892;43.412;24.612;2022-11-20T11:30:18;40.70;;;29.90;;
11671;SDS011;5892;43.412;24.612;2022-11-20T11:32:46;39.67;;;32.10;;
11671;SDS011;5892;43.412;24.612;2022-11-20T11:35:21;34.77;;;25.97;;
11671;SDS011;5892;43.412;24.612;2022-11-20T11:37:51;33.80;;;25.80;;
11671;SDS011;5892;43.412;24.612;2022-11-20T11:40:21;39.00;;;27.70;;
11671;SDS011;5892;43.412;24.612;2022-11-20T11:42:54;37.00;;;28.27;;
11671;SDS011;5892;43.412;24.612;2022-11-20T11:45:22;35.40;;;28.47;;
11671;SDS011;5892;43.412;24.612;2022-11-20T11:47:49;37.27;;;29.00;;
11671;SDS011;5892;43.412;24.612;2022-11-20T11:50:20;32.33;;;25.97;;
11671;SDS011;5892;43.412;24.612;2022-11-20T11:52:54;33.77;;;25.10;;
11671;SDS011;5892;43.412;24.612;2022-11-20T11:55:36;31.63;;;24.63;;
11671;SDS011;5892;43.412;24.612;2022-11-20T11:58:14;33.70;;;26.20;;
11671;SDS011;5892;43.412;24.612;2022-11-20T12:00:54;34.67;;;25.67;;
11671;SDS011;5892;43.412;24.612;2022-11-20T12:03:27;33.60;;;25.03;;
11671;SDS011;5892;43.412;24.612;2022-11-20T12:06:01;38.60;;;26.83;;
11671;SDS011;5892;43.412;24.612;2022-11-20T12:08:36;32.37;;;26.23;;
11671;SDS011;5892;43.412;24.612;2022-11-20T12:11:11;32.53;;;23.63;;
11671;SDS011;5892;43.412;24.612;2022-11-20T12:13:44;33.10;;;26.80;;
11671;SDS011;5892;43.412;24.612;2022-11-20T12:16:18;34.27;;;27.47;;
11671;SDS011;5892;43.412;24.612;2022-11-20T12:18:47;30.17;;;22.77;;
11671;SDS011;5892;43.412;24.612;2022-11-20T12:21:18;32.03;;;25.67;;
11671;SDS011;5892;43.412;24.612;2022-11-20T12:23:52;38.50;;;28.87;;
11671;SDS011;5892;43.412;24.612;2022-11-20T12:26:34;32.37;;;26.23;;
11671;SDS011;5892;43.412;24.612;2022-11-20T12:29:09;28.33;;;23.20;;
11671;SDS011;5892;43.412;24.612;2022-11-20T12:31:54;28.07;;;21.27;;
11671;SDS011;5892;43.412;24.612;2022-11-20T12:37:26;22.70;;;18.67;;
11671;SDS011;5892;43.412;24.612;2022-11-20T12:40:07;19.97;;;15.97;;
11671;SDS011;5892;43.412;24.612;2022-11-20T12:42:57;33.43;;;24.03;;
11671;SDS011;5892;43.412;24.612;2022-11-20T12:46:02;44.13;;;33.03;;
11671;SDS011;5892;43.412;24.612;2022-11-20T12:48:46;40.93;;;31.53;;
11671;SDS011;5892;43.412;24.612;2022-11-20T12:51:29;38.37;;;28.97;;
11671;SDS011;5892;43.412;24.612;2022-11-20T12:54:15;41.70;;;27.93;;
11671;SDS011;5892;43.412;24.612;2022-11-20T12:57:08;41.30;;;28.97;;
11671;SDS011;5892;43.412;24.612;2022-11-20T13:02:40;43.37;;;32.47;;
11671;SDS011;5892;43.412;24.612;2022-11-20T13:05:19;31.43;;;24.30;;
11671;SDS011;5892;43.412;24.612;2022-11-20T13:07:51;32.63;;;24.47;;
11671;SDS011;5892;43.412;24.612;2022-11-20T13:10:21;124.73;;;53.87;;
11671;SDS011;5892;43.412;24.612;2022-11-20T13:13:00;30.50;;;21.57;;
11671;SDS011;5892;43.412;24.612;2022-11-20T13:15:41;35.27;;;25.20;;
11671;SDS011;5892;43.412;24.612;2022-11-20T13:18:18;35.13;;;23.30;;
11671;SDS011;5892;43.412;24.612;2022-11-20T13:20:45;35.77;;;26.00;;
11671;SDS011;5892;43.412;24.612;2022-11-20T13:23:22;42.60;;;26.43;;
11671;SDS011;5892;43.412;24.612;2022-11-20T13:25:50;44.13;;;28.60;;
11671;SDS011;5892;43.412;24.612;2022-11-20T13:28:30;42.80;;;28.43;;
11671;SDS011;5892;43.412;24.612;2022-11-20T13:30:57;38.83;;;29.00;;
11671;SDS011;5892;43.412;24.612;2022-11-20T13:33:28;36.33;;;26.60;;
11671;SDS011;5892;43.412;24.612;2022-11-20T13:36:00;49.57;;;34.00;;
11671;SDS011;5892;43.412;24.612;2022-11-20T13:38:28;39.50;;;27.03;;
11671;SDS011;5892;43.412;24.612;2022-11-20T13:41:07;38.60;;;27.83;;
11671;SDS011;5892;43.412;24.612;2022-11-20T13:43:51;39.63;;;26.10;;
11671;SDS011;5892;43.412;24.612;2022-11-20T13:46:18;41.10;;;28.40;;
11671;SDS011;5892;43.412;24.612;2022-11-20T13:48:49;44.13;;;31.13;;
11671;SDS011;5892;43.412;24.612;2022-11-20T13:51:25;42.70;;;30.40;;
11671;SDS011;5892;43.412;24.612;2022-11-20T13:54:07;45.07;;;32.17;;
11671;SDS011;5892;43.412;24.612;2022-11-20T13:56:48;57.60;;;41.53;;
11671;SDS011;5892;43.412;24.612;2022-11-20T13:59:31;57.50;;;42.37;;
11671;SDS011;5892;43.412;24.612;2022-11-20T14:02:09;56.73;;;41.97;;
11671;SDS011;5892;43.412;24.612;2022-11-20T14:04:42;48.97;;;39.33;;
11671;SDS011;5892;43.412;24.612;2022-11-20T14:07:10;41.83;;;31.40;;
11671;SDS011;5892;43.412;24.612;2022-11-20T14:09:38;34.00;;;26.50;;
11671;SDS011;5892;43.412;24.612;2022-11-20T14:12:13;39.90;;;28.17;;
11671;SDS011;5892;43.412;24.612;2022-11-20T14:14:48;38.90;;;31.77;;
11671;SDS011;5892;43.412;24.612;2022-11-20T14:17:18;37.40;;;26.23;;
11671;SDS011;5892;43.412;24.612;2022-11-20T14:19:47;32.80;;;25.50;;
11671;SDS011;5892;43.412;24.612;2022-11-20T14:22:16;37.53;;;27.33;;
11671;SDS011;5892;43.412;24.612;2022-11-20T14:24:45;42.13;;;31.43;;
11671;SDS011;5892;43.412;24.612;2022-11-20T14:27:13;32.73;;;25.80;;
11671;SDS011;5892;43.412;24.612;2022-11-20T14:29:42;40.93;;;29.27;;
11671;SDS011;5892;43.412;24.612;2022-11-20T14:32:15;35.70;;;25.13;;
11671;SDS011;5892;43.412;24.612;2022-11-20T14:34:45;48.20;;;30.33;;
11671;SDS011;5892;43.412;24.612;2022-11-20T14:37:17;37.90;;;29.07;;
11671;SDS011;5892;43.412;24.612;2022-11-20T14:39:49;34.50;;;25.63;;
11671;SDS011;5892;43.412;24.612;2022-11-20T14:42:18;50.80;;;29.57;;
11671;SDS011;5892;43.412;24.612;2022-11-20T14:44:47;28.23;;;23.03;;